Time;durP1;ratioP1;P1;durP2;ratioP2;P2;SDS_P1;SDS_P2;PMS_P1;PMS_P2;Temp;Humidity;BMP_temperature;BMP_pressure;BME280_temperature;BME280_humidity;BME280_pressure;Samples;Min_cycle;Max_cycle;Signal;HPM_P1;HPM_P2
2022/10/12 00:02:48;;;;;;;10.27;3.60;;;8.90;99.90;;;;;;10396308;28;20224;-75
2022/10/12 00:07:49;;;;;;;10.53;3.70;;;8.80;99.90;;;;;;10396340;28;20408;-74
2022/10/12 00:12:49;;;;;;;7.77;3.60;;;8.70;99.90;;;;;;10394791;28;20225;-72
2022/10/12 00:17:51;;;;;;;9.47;3.73;;;8.60;99.90;;;;;;10399400;28;20251;-74
2022/10/12 00:22:54;;;;;;;8.83;3.67;;;8.60;99.90;;;;;;10383799;28;20649;-73
2022/10/12 00:27:55;;;;;;;8.77;4.40;;;8.50;99.90;;;;;;10399447;28;20216;-73
2022/10/12 00:32:56;;;;;;;9.67;4.03;;;8.40;99.90;;;;;;10395177;28;20240;-74
2022/10/12 00:37:57;;;;;;;11.93;4.03;;;8.40;99.90;;;;;;10398884;28;20835;-74
2022/10/12 00:42:58;;;;;;;9.83;3.90;;;8.40;99.90;;;;;;10406951;28;20244;-74
2022/10/12 00:48:01;;;;;;;15.07;4.83;;;8.30;99.90;;;;;;10398842;28;20217;-74
2022/10/12 00:53:08;;;;;;;8.83;4.10;;;8.30;99.90;;;;;;10393862;28;20595;-74
2022/10/12 00:58:09;;;;;;;11.87;4.10;;;8.20;99.90;;;;;;10401753;28;20227;-74
2022/10/12 01:03:14;;;;;;;11.53;4.17;;;8.20;99.90;;;;;;10398513;28;20229;-74
2022/10/12 01:08:14;;;;;;;13.87;4.67;;;8.10;99.90;;;;;;10379387;28;20271;-74
2022/10/12 01:13:16;;;;;;;12.87;4.37;;;8.10;99.90;;;;;;10397996;28;20220;-75
2022/10/12 01:18:24;;;;;;;12.47;5.03;;;8.10;99.90;;;;;;10401209;28;20224;-74
2022/10/12 01:23:47;;;;;;;15.40;5.33;;;8.00;99.90;;;;;;10393939;28;20240;-74
2022/10/12 01:29:25;;;;;;;11.40;4.90;;;8.10;99.90;;;;;;10395836;28;20703;-74
2022/10/12 01:34:38;;;;;;;13.53;5.20;;;8.10;99.90;;;;;;10396693;28;20290;-73
2022/10/12 01:39:52;;;;;;;10.67;4.83;;;8.10;99.90;;;;;;10388018;28;20225;-73
2022/10/12 01:45:07;;;;;;;15.50;5.33;;;8.00;99.90;;;;;;10399519;28;20316;-74
2022/10/12 01:50:11;;;;;;;9.93;5.07;;;8.00;99.90;;;;;;10444128;28;20718;-75
2022/10/12 01:55:27;;;;;;;10.87;5.40;;;8.00;99.90;;;;;;10391694;28;20181;-75
2022/10/12 02:00:31;;;;;;;11.00;5.40;;;7.90;99.90;;;;;;10390418;28;20747;-75
2022/10/12 02:05:43;;;;;;;15.17;5.90;;;7.90;99.90;;;;;;10394011;28;20327;-75
2022/10/12 02:10:47;;;;;;;14.27;5.93;;;7.80;99.90;;;;;;10391521;28;20699;-75
2022/10/12 02:15:50;;;;;;;11.13;5.77;;;7.80;99.90;;;;;;10384273;28;20220;-74
2022/10/12 02:20:53;;;;;;;10.00;6.13;;;7.80;99.90;;;;;;10398186;28;20220;-74
2022/10/12 02:25:57;;;;;;;10.57;5.97;;;7.70;99.90;;;;;;10383463;28;20235;-74
2022/10/12 02:31:13;;;;;;;8.80;5.87;;;7.70;99.90;;;;;;10394887;28;20220;-75
2022/10/12 02:36:28;;;;;;;11.57;6.33;;;7.70;99.90;;;;;;10394042;28;20302;-74
2022/10/12 02:41:36;;;;;;;12.73;5.40;;;7.70;99.90;;;;;;10396539;28;20240;-74
2022/10/12 02:46:39;;;;;;;11.20;5.57;;;7.70;99.90;;;;;;10397969;28;20216;-75
2022/10/12 02:51:41;;;;;;;9.90;5.20;;;7.70;99.90;;;;;;10388561;28;20227;-75
2022/10/12 02:56:44;;;;;;;12.30;5.50;;;7.60;99.90;;;;;;10383079;28;20300;-75
2022/10/12 03:01:44;;;;;;;8.23;4.87;;;7.60;99.90;;;;;;10400695;28;20220;-75
2022/10/12 03:06:45;;;;;;;9.33;5.03;;;7.60;99.90;;;;;;10390839;28;20615;-75
2022/10/12 03:11:46;;;;;;;8.47;4.57;;;7.50;99.90;;;;;;10385287;28;21119;-75
2022/10/12 03:16:47;;;;;;;12.13;4.43;;;7.60;99.90;;;;;;10381074;28;20224;-75
2022/10/12 03:21:47;;;;;;;10.50;5.00;;;7.60;99.90;;;;;;10384653;28;20995;-75
2022/10/12 03:26:48;;;;;;;10.17;4.40;;;7.60;99.90;;;;;;10396446;28;20450;-73
2022/10/12 03:31:48;;;;;;;7.07;3.93;;;7.50;99.90;;;;;;10406138;28;20812;-74
2022/10/12 03:36:49;;;;;;;13.20;4.33;;;7.50;99.90;;;;;;10402629;28;20225;-74
2022/10/12 03:41:49;;;;;;;9.83;3.90;;;7.50;99.90;;;;;;10398242;28;20225;-74
2022/10/12 03:46:50;;;;;;;9.50;4.20;;;7.40;99.90;;;;;;10402929;28;20236;-74
2022/10/12 03:51:51;;;;;;;9.67;4.30;;;7.40;99.90;;;;;;10399305;28;20672;-74
2022/10/12 03:56:51;;;;;;;10.77;4.13;;;7.40;99.90;;;;;;10396831;28;20232;-74
2022/10/12 04:01:52;;;;;;;10.03;4.00;;;7.30;99.90;;;;;;10389671;28;20220;-75
2022/10/12 04:06:52;;;;;;;12.13;4.10;;;7.30;99.90;;;;;;10394370;28;20274;-76
2022/10/12 04:11:53;;;;;;;8.73;4.30;;;7.30;99.90;;;;;;10399571;28;20327;-75
2022/10/12 04:16:54;;;;;;;11.67;4.17;;;7.20;99.90;;;;;;10395991;28;20221;-74
2022/10/12 04:21:54;;;;;;;11.23;4.60;;;7.30;99.90;;;;;;10395070;28;20613;-73
2022/10/12 04:26:55;;;;;;;16.87;4.90;;;7.20;99.90;;;;;;10403551;28;20236;-75
2022/10/12 04:31:55;;;;;;;12.40;4.50;;;7.20;99.90;;;;;;10394779;28;20209;-74
2022/10/12 04:36:56;;;;;;;9.13;4.07;;;7.20;99.90;;;;;;10392562;28;20217;-74
2022/10/12 04:41:57;;;;;;;13.13;4.30;;;7.10;99.90;;;;;;10396063;28;20216;-74
2022/10/12 04:46:57;;;;;;;13.07;4.37;;;7.00;99.90;;;;;;10403393;28;20231;-73
2022/10/12 04:51:58;;;;;;;11.50;4.87;;;7.10;99.90;;;;;;10389974;28;20315;-73
2022/10/12 04:56:58;;;;;;;15.07;5.13;;;7.10;99.90;;;;;;10394798;28;20726;-73
2022/10/12 05:01:59;;;;;;;14.87;5.40;;;7.10;99.90;;;;;;10402160;28;20596;-74
2022/10/12 05:07:00;;;;;;;12.20;4.70;;;7.00;99.90;;;;;;10402311;28;20275;-74
2022/10/12 05:12:00;;;;;;;10.03;5.13;;;7.00;99.90;;;;;;10393490;28;20219;-74
2022/10/12 05:17:01;;;;;;;14.93;5.57;;;7.00;99.90;;;;;;10393370;28;20220;-74
2022/10/12 05:22:01;;;;;;;16.27;5.37;;;7.00;99.90;;;;;;10392921;28;20216;-74
2022/10/12 05:27:02;;;;;;;12.43;5.17;;;7.00;99.90;;;;;;10401466;28;20278;-75
2022/10/12 05:32:03;;;;;;;11.87;4.93;;;7.10;99.90;;;;;;10392537;28;20220;-73
2022/10/12 05:37:03;;;;;;;15.27;5.33;;;7.10;99.90;;;;;;10395457;28;20707;-74
2022/10/12 05:42:04;;;;;;;19.27;6.43;;;7.10;99.90;;;;;;10405218;28;20613;-74
2022/10/12 05:47:05;;;;;;;12.50;5.43;;;7.20;99.90;;;;;;10401452;28;20243;-71
2022/10/12 05:52:05;;;;;;;11.93;5.13;;;7.20;99.90;;;;;;10391567;28;20579;-69
2022/10/12 05:57:06;;;;;;;12.20;4.67;;;7.30;99.90;;;;;;10394645;28;20223;-69
2022/10/12 06:02:11;;;;;;;7.20;4.20;;;7.40;99.90;;;;;;10393843;28;20216;-67
2022/10/12 06:07:12;;;;;;;13.27;4.60;;;7.50;99.90;;;;;;10399559;28;20241;-68
2022/10/12 06:12:12;;;;;;;11.57;5.40;;;7.60;99.90;;;;;;10401502;28;20221;-71
2022/10/12 06:17:13;;;;;;;9.20;5.10;;;7.70;99.90;;;;;;10403789;28;20750;-72
2022/10/12 06:22:14;;;;;;;9.73;5.30;;;7.80;99.90;;;;;;10403634;28;20230;-71
2022/10/12 06:27:17;;;;;;;11.07;5.50;;;8.00;99.90;;;;;;10404227;28;20227;-71
2022/10/12 06:32:18;;;;;;;13.50;5.40;;;8.10;99.90;;;;;;10403749;28;20223;-71
2022/10/12 06:37:18;;;;;;;9.80;4.20;;;8.20;99.90;;;;;;10402615;28;20694;-71
2022/10/12 06:42:19;;;;;;;13.23;4.20;;;8.20;99.90;;;;;;10403952;28;20235;-72
2022/10/12 06:47:19;;;;;;;4.93;3.80;;;8.30;99.90;;;;;;10402885;28;20237;-73
2022/10/12 06:52:20;;;;;;;7.80;3.90;;;8.40;99.90;;;;;;10386058;28;20632;-72
2022/10/12 06:57:21;;;;;;;19.10;4.60;;;8.60;99.90;;;;;;10394932;28;20233;-71
2022/10/12 07:02:21;;;;;;;14.47;4.00;;;8.80;99.90;;;;;;10396463;28;20313;-72
2022/10/12 07:07:22;;;;;;;8.93;3.60;;;9.30;99.90;;;;;;10396780;28;20247;-72
2022/10/12 07:12:22;;;;;;;6.30;3.40;;;10.00;99.90;;;;;;10387170;28;20595;-72
2022/10/12 07:17:26;;;;;;;5.73;3.17;;;10.00;99.90;;;;;;10404233;28;20252;-71
2022/10/12 07:22:27;;;;;;;7.00;3.10;;;10.70;99.90;;;;;;10396714;28;20231;-71
2022/10/12 07:27:27;;;;;;;6.07;2.83;;;13.00;99.90;;;;;;10400846;28;20232;-72
2022/10/12 07:32:28;;;;;;;5.77;3.13;;;14.90;99.90;;;;;;10396206;28;20727;-73
2022/10/12 07:37:28;;;;;;;4.37;2.73;;;16.30;99.90;;;;;;10401165;28;20216;-73
2022/10/12 07:42:29;;;;;;;6.20;2.90;;;17.00;99.90;;;;;;10403032;28;20713;-71
2022/10/12 07:47:29;;;;;;;8.20;3.33;;;17.20;99.90;;;;;;10399879;28;20260;-72
2022/10/12 07:52:31;;;;;;;5.90;2.93;;;18.20;99.90;;;;;;10401693;28;20275;-72
2022/10/12 07:57:32;;;;;;;5.23;2.87;;;19.50;99.90;;;;;;10400259;28;20226;-71
2022/10/12 08:02:34;;;;;;;9.10;3.37;;;19.70;97.20;;;;;;10403655;28;20880;-72
2022/10/12 08:07:35;;;;;;;6.97;3.43;;;21.20;92.80;;;;;;10400847;28;20296;-71
2022/10/12 08:12:36;;;;;;;6.27;3.13;;;21.50;90.20;;;;;;10394538;28;20217;-72
2022/10/12 08:17:36;;;;;;;7.93;3.43;;;22.30;83.50;;;;;;10406519;28;20213;-71
2022/10/12 08:22:37;;;;;;;8.50;3.47;;;24.90;72.40;;;;;;10409219;28;20218;-72
2022/10/12 08:27:38;;;;;;;4.97;3.07;;;27.40;60.10;;;;;;10414543;28;20208;-72
2022/10/12 08:32:39;;;;;;;5.23;3.50;;;28.40;54.00;;;;;;10409327;28;20254;-71
2022/10/12 08:37:40;;;;;;;7.27;3.60;;;27.00;52.70;;;;;;10407093;28;20313;-72
2022/10/12 08:42:49;;;;;;;6.93;3.10;;;24.30;58.70;;;;;;10408960;28;20652;-70
2022/10/12 08:47:59;;;;;;;5.77;3.23;;;22.60;64.40;;;;;;10409380;28;20226;-72
2022/10/12 08:53:31;;;;;;;8.67;3.73;;;21.60;68.80;;;;;;10390412;28;20221;-72
2022/10/12 08:58:35;;;;;;;9.17;3.50;;;21.60;69.50;;;;;;10398328;28;20879;-72
2022/10/12 09:03:45;;;;;;;8.13;3.37;;;21.40;70.20;;;;;;10407681;28;20229;-73
2022/10/12 09:09:12;;;;;;;7.33;3.77;;;22.30;69.40;;;;;;10416690;28;20228;-72
2022/10/12 09:14:23;;;;;;;7.00;3.87;;;22.90;68.00;;;;;;10407088;28;20217;-72
2022/10/12 09:19:37;;;;;;;4.67;3.37;;;23.90;64.50;;;;;;10397749;28;20246;-73
2022/10/12 09:24:39;;;;;;;7.80;3.50;;;27.10;56.80;;;;;;10396327;28;20258;-72
2022/10/12 09:29:40;;;;;;;16.87;10.03;;;29.60;50.00;;;;;;10395579;28;20213;-73
2022/10/12 09:34:42;;;;;;;11.87;4.70;;;31.20;45.80;;;;;;10401431;28;20224;-73
2022/10/12 09:39:43;;;;;;;10.40;3.87;;;32.70;43.10;;;;;;10414936;28;20236;-72
2022/10/12 09:45:14;;;;;;;9.37;3.70;;;33.20;41.50;;;;;;10404006;28;20978;-72
2022/10/12 09:50:53;;;;;;;7.73;3.97;;;33.40;39.60;;;;;;10405603;28;20208;-72
2022/10/12 09:56:23;;;;;;;6.30;3.80;;;33.70;39.20;;;;;;10398530;28;20214;-72
2022/10/12 10:01:29;;;;;;;8.70;3.57;;;34.00;37.90;;;;;;10415403;28;20224;-71
2022/10/12 10:06:30;;;;;;;10.50;4.77;;;34.40;37.20;;;;;;10405417;28;20227;-70
2022/10/12 10:11:31;;;;;;;9.33;3.93;;;34.50;37.00;;;;;;10401830;28;20705;-71
2022/10/12 10:16:31;;;;;;;9.73;4.83;;;34.80;36.60;;;;;;10405236;28;20709;-72
2022/10/12 10:21:36;;;;;;;7.30;4.17;;;34.90;36.70;;;;;;10401041;28;20220;-72
2022/10/12 10:26:54;;;;;;;11.43;4.93;;;35.20;35.30;;;;;;10396882;28;20230;-70
2022/10/12 10:32:28;;;;;;;9.63;4.83;;;33.00;38.40;;;;;;10401551;28;20212;-70
2022/10/12 10:37:30;;;;;;;9.83;5.27;;;34.00;37.00;;;;;;10400486;28;20251;-70
2022/10/12 10:42:33;;;;;;;9.00;5.10;;;32.10;39.70;;;;;;10395093;28;20648;-71
2022/10/12 10:47:42;;;;;;;10.30;5.57;;;29.10;44.60;;;;;;10398332;28;20294;-70
2022/10/12 10:52:50;;;;;;;8.50;4.90;;;28.80;46.10;;;;;;10402844;28;20212;-71
2022/10/12 10:58:04;;;;;;;7.47;4.60;;;29.40;45.30;;;;;;10386579;28;20223;-71
2022/10/12 11:03:41;;;;;;;10.70;5.37;;;27.80;47.60;;;;;;10398155;28;20231;-72
2022/10/12 11:08:43;;;;;;;11.47;5.37;;;27.90;49.00;;;;;;10387313;28;20234;-72
2022/10/12 11:13:55;;;;;;;8.60;4.67;;;27.70;49.00;;;;;;10388131;28;20218;-71
2022/10/12 11:19:11;;;;;;;9.73;4.80;;;26.30;51.60;;;;;;10397125;28;20224;-71
2022/10/12 11:24:16;;;;;;;10.43;4.60;;;25.10;54.50;;;;;;10397287;28;20802;-72
2022/10/12 11:29:17;;;;;;;8.63;4.30;;;24.30;57.10;;;;;;10402494;28;20224;-72
2022/10/12 11:34:21;;;;;;;10.33;5.40;;;23.70;57.90;;;;;;10406550;28;20298;-72
2022/10/12 11:39:38;;;;;;;10.57;5.40;;;22.90;60.30;;;;;;10404136;28;20569;-71
2022/10/12 11:44:45;;;;;;;10.93;5.47;;;22.40;65.00;;;;;;10414684;28;20715;-72
2022/10/12 11:49:52;;;;;;;8.83;5.13;;;22.00;66.40;;;;;;10410730;28;20220;-72
2022/10/12 11:55:44;;;;;;;10.47;6.20;;;21.60;67.90;;;;;;10409609;28;20590;-72
2022/10/12 12:00:47;;;;;;;12.80;5.77;;;21.20;69.50;;;;;;10289325;28;20474;-71
2022/10/12 12:05:48;;;;;;;11.70;5.83;;;20.80;72.30;;;;;;10386046;28;20277;-71
2022/10/12 12:11:03;;;;;;;6.93;5.23;;;20.50;74.50;;;;;;10407753;28;20230;-71
2022/10/12 12:16:12;;;;;;;8.50;5.67;;;20.60;74.90;;;;;;10406756;28;20322;-72
2022/10/12 12:21:13;;;;;;;10.83;5.90;;;20.50;75.20;;;;;;10420857;28;20768;-72
2022/10/12 12:26:17;;;;;;;11.97;5.37;;;20.30;77.50;;;;;;10404790;28;20235;-72
2022/10/12 12:31:25;;;;;;;14.17;5.80;;;20.00;78.10;;;;;;10410251;28;20231;-72
2022/10/12 12:36:32;;;;;;;16.70;8.50;;;19.70;82.30;;;;;;10407651;28;20298;-71
2022/10/12 12:41:51;;;;;;;11.83;5.97;;;19.50;84.20;;;;;;10410405;28;20232;-70
2022/10/12 12:46:54;;;;;;;14.03;6.40;;;19.20;84.90;;;;;;10408636;28;20706;-70
2022/10/12 12:51:56;;;;;;;10.80;6.10;;;19.00;87.00;;;;;;10398989;28;20281;-70
2022/10/12 12:57:08;;;;;;;9.47;6.50;;;18.80;89.60;;;;;;10389846;28;20227;-71
2022/10/12 13:02:44;;;;;;;11.67;6.57;;;18.70;91.10;;;;;;10406676;28;20223;-71
2022/10/12 13:08:02;;;;;;;9.43;7.33;;;18.50;92.00;;;;;;10364937;28;20231;-71
2022/10/12 13:13:27;;;;;;;11.57;6.97;;;18.50;92.70;;;;;;10400848;28;20236;-71
2022/10/12 13:18:59;;;;;;;15.10;7.83;;;18.70;93.70;;;;;;10398676;28;20265;-71
2022/10/12 13:24:31;;;;;;;11.67;7.80;;;19.00;93.70;;;;;;10403679;28;20242;-71
2022/10/12 13:29:47;;;;;;;11.13;7.40;;;19.00;94.40;;;;;;10403953;28;20901;-70
2022/10/12 13:34:53;;;;;;;12.80;8.47;;;19.00;95.30;;;;;;10388571;28;20258;-70
2022/10/12 13:39:55;;;;;;;15.07;8.50;;;19.10;95.80;;;;;;10400584;28;20222;-71
2022/10/12 13:44:57;;;;;;;14.97;7.40;;;19.10;96.20;;;;;;10405482;28;20310;-71
2022/10/12 13:49:58;;;;;;;9.37;7.37;;;18.80;97.00;;;;;;10396743;28;20271;-72
2022/10/12 13:54:59;;;;;;;14.90;8.40;;;18.50;98.50;;;;;;10386446;28;20227;-72
2022/10/12 14:00:08;;;;;;;12.53;9.10;;;18.30;99.90;;;;;;10439767;28;20223;-71
2022/10/12 14:05:18;;;;;;;13.73;9.37;;;18.30;99.90;;;;;;10434969;28;20333;-72
2022/10/12 14:10:34;;;;;;;12.53;9.30;;;18.30;99.90;;;;;;10405429;28;20218;-71
2022/10/12 14:15:38;;;;;;;14.97;9.17;;;18.50;99.90;;;;;;10385729;28;20230;-71
2022/10/12 14:20:39;;;;;;;14.07;9.53;;;18.50;99.90;;;;;;10391200;28;20299;-71
2022/10/12 14:25:54;;;;;;;21.23;10.17;;;18.60;99.90;;;;;;10391305;28;20228;-70
2022/10/12 14:30:55;;;;;;;14.33;10.27;;;18.50;99.90;;;;;;10390919;28;20229;-70
2022/10/12 14:36:34;;;;;;;13.63;9.83;;;18.40;99.90;;;;;;10406711;28;20221;-71
2022/10/12 14:41:48;;;;;;;11.47;8.50;;;18.30;99.90;;;;;;10328726;28;20279;-70
2022/10/12 14:47:05;;;;;;;14.67;9.57;;;18.20;99.90;;;;;;10404279;28;20254;-71
2022/10/12 14:52:13;;;;;;;14.60;9.57;;;18.20;99.90;;;;;;10421172;28;20316;-71
2022/10/12 14:57:16;;;;;;;11.50;8.93;;;18.10;99.90;;;;;;10414621;28;20232;-72
2022/10/12 15:02:31;;;;;;;18.47;10.73;;;18.10;99.90;;;;;;10398141;28;20326;-72
2022/10/12 15:07:33;;;;;;;15.07;11.57;;;17.90;99.90;;;;;;10393070;28;20267;-72
2022/10/12 15:12:34;;;;;;;14.67;11.20;;;17.90;99.90;;;;;;10396449;28;20224;-72
2022/10/12 15:17:36;;;;;;;15.57;10.37;;;17.80;99.90;;;;;;10395334;28;20226;-72
2022/10/12 15:22:37;;;;;;;18.57;10.97;;;17.70;99.90;;;;;;10405162;28;20225;-71
2022/10/12 15:27:38;;;;;;;13.67;10.07;;;17.50;99.90;;;;;;10411332;28;20323;-71
2022/10/12 15:32:38;;;;;;;15.87;11.17;;;17.30;99.90;;;;;;10409961;28;20217;-71
2022/10/12 15:37:39;;;;;;;13.13;9.50;;;17.10;99.90;;;;;;10408971;28;20233;-70
2022/10/12 15:42:41;;;;;;;15.10;9.20;;;16.90;99.90;;;;;;10405755;28;20305;-70
2022/10/12 15:47:42;;;;;;;18.50;9.70;;;16.80;99.90;;;;;;10411589;28;20236;-72
2022/10/12 15:52:42;;;;;;;15.17;8.93;;;16.70;99.90;;;;;;10406290;28;20267;-71
2022/10/12 15:57:45;;;;;;;15.37;8.77;;;16.60;99.90;;;;;;10421279;28;20215;-70
2022/10/12 16:02:45;;;;;;;12.97;9.20;;;16.70;99.90;;;;;;10413744;28;20619;-73
2022/10/12 16:07:47;;;;;;;12.87;8.47;;;16.60;99.90;;;;;;10401569;28;20236;-71
2022/10/12 16:12:49;;;;;;;12.77;7.90;;;16.50;99.90;;;;;;10397000;28;20227;-70
2022/10/12 16:17:51;;;;;;;13.07;8.17;;;16.30;99.90;;;;;;10406692;28;20228;-69
2022/10/12 16:22:52;;;;;;;11.00;8.33;;;16.20;99.90;;;;;;10397599;28;20600;-71
2022/10/12 16:27:55;;;;;;;11.50;8.77;;;15.90;99.90;;;;;;10402513;28;20217;-71
2022/10/12 16:32:55;;;;;;;17.40;9.20;;;15.70;99.90;;;;;;10402416;28;20216;-71
2022/10/12 16:37:56;;;;;;;12.33;9.50;;;15.40;99.90;;;;;;10404491;28;20228;-70
2022/10/12 16:42:58;;;;;;;12.03;9.47;;;15.20;99.90;;;;;;10406287;28;20247;-70
2022/10/12 16:47:58;;;;;;;14.03;9.53;;;15.00;99.90;;;;;;10433489;28;20806;-70
2022/10/12 16:52:59;;;;;;;13.57;9.83;;;14.90;99.90;;;;;;10408817;28;20302;-70
2022/10/12 16:58:00;;;;;;;16.80;10.30;;;14.90;99.90;;;;;;10401371;28;20215;-68
2022/10/12 17:03:00;;;;;;;12.10;9.00;;;14.70;99.90;;;;;;10390385;28;20684;-68
2022/10/12 17:08:01;;;;;;;10.97;9.17;;;14.70;99.90;;;;;;10396138;28;20229;-69
2022/10/12 17:13:02;;;;;;;17.23;9.20;;;14.50;99.90;;;;;;10394925;28;20696;-69
2022/10/12 17:18:02;;;;;;;13.17;9.30;;;14.40;99.90;;;;;;10394260;28;20577;-70
2022/10/12 17:23:03;;;;;;;12.47;9.70;;;14.30;99.90;;;;;;10383592;28;20313;-70
2022/10/12 17:28:04;;;;;;;16.67;9.43;;;14.20;99.90;;;;;;10393776;28;20326;-71
2022/10/12 17:33:04;;;;;;;10.27;8.80;;;14.10;99.90;;;;;;10388530;28;20302;-72
2022/10/12 17:38:05;;;;;;;12.00;8.77;;;14.00;99.90;;;;;;10396740;28;20216;-71
2022/10/12 17:43:05;;;;;;;13.27;10.10;;;13.90;99.90;;;;;;10384539;28;20383;-71
2022/10/12 17:48:06;;;;;;;12.57;9.73;;;13.80;99.90;;;;;;10395291;28;20216;-69
2022/10/12 17:53:07;;;;;;;13.97;10.50;;;13.80;99.90;;;;;;10382608;28;20216;-71
2022/10/12 17:58:07;;;;;;;16.03;10.80;;;13.70;99.90;;;;;;10389986;28;20668;-71
2022/10/12 18:03:10;;;;;;;14.90;11.77;;;13.70;99.90;;;;;;10382313;28;20227;-69
2022/10/12 18:08:10;;;;;;;16.03;13.10;;;13.60;99.90;;;;;;10390692;28;20209;-68
2022/10/12 18:13:14;;;;;;;17.10;12.03;;;13.50;99.90;;;;;;10382829;28;20232;-70
2022/10/12 18:18:15;;;;;;;15.30;10.87;;;13.40;99.90;;;;;;10390840;28;20283;-71
2022/10/12 18:23:16;;;;;;;16.43;11.10;;;13.20;99.90;;;;;;10393951;28;20336;-70
2022/10/12 18:28:16;;;;;;;15.00;11.30;;;13.10;99.90;;;;;;10387239;28;20221;-72
2022/10/12 18:33:17;;;;;;;14.87;11.60;;;13.10;99.90;;;;;;10391196;28;20228;-70
2022/10/12 18:38:18;;;;;;;17.00;12.40;;;13.00;99.90;;;;;;10388633;28;20229;-70
2022/10/12 18:43:21;;;;;;;17.33;12.80;;;13.00;99.90;;;;;;10400119;28;20231;-72
2022/10/12 18:48:22;;;;;;;18.00;14.30;;;13.00;99.90;;;;;;10385987;28;20270;-70
2022/10/12 18:53:26;;;;;;;19.47;13.80;;;12.90;99.90;;;;;;10382448;28;20224;-70
2022/10/12 18:58:27;;;;;;;21.07;14.30;;;13.00;99.90;;;;;;10393605;28;20221;-70
2022/10/12 19:03:28;;;;;;;16.47;13.37;;;13.00;99.90;;;;;;10387661;28;20994;-71
2022/10/12 19:08:30;;;;;;;18.17;13.17;;;12.90;99.90;;;;;;10392454;28;20228;-69
2022/10/12 19:13:30;;;;;;;15.53;13.50;;;12.90;99.90;;;;;;10398847;28;20228;-69
2022/10/12 19:18:31;;;;;;;23.73;13.20;;;12.70;99.90;;;;;;10394274;28;20286;-69
2022/10/12 19:23:32;;;;;;;18.47;12.33;;;12.60;99.90;;;;;;10397415;28;20252;-70
2022/10/12 19:28:33;;;;;;;15.83;13.13;;;12.40;99.90;;;;;;10396389;28;20224;-71
2022/10/12 19:33:34;;;;;;;19.07;14.40;;;12.40;99.90;;;;;;10396981;28;20220;-70
2022/10/12 19:38:35;;;;;;;18.20;13.27;;;12.30;99.90;;;;;;10393342;28;20220;-71
2022/10/12 19:43:36;;;;;;;17.57;13.97;;;12.20;99.90;;;;;;10396110;28;20335;-71
2022/10/12 19:48:37;;;;;;;17.70;13.30;;;12.10;99.90;;;;;;10387032;28;20217;-72
2022/10/12 19:53:39;;;;;;;17.47;13.10;;;12.00;99.90;;;;;;10391095;28;20229;-71
2022/10/12 19:58:41;;;;;;;19.33;12.90;;;11.90;99.90;;;;;;10390126;28;20222;-70
2022/10/12 20:03:44;;;;;;;18.70;13.90;;;11.90;99.90;;;;;;10389551;28;20322;-70
2022/10/12 20:08:46;;;;;;;17.77;13.10;;;11.80;99.90;;;;;;10388459;28;20253;-71
2022/10/12 20:13:53;;;;;;;18.37;12.53;;;11.80;99.90;;;;;;10394649;28;20225;-70
2022/10/12 20:18:54;;;;;;;17.00;13.53;;;11.70;99.90;;;;;;10399386;28;20224;-70
2022/10/12 20:23:55;;;;;;;16.40;13.73;;;11.70;99.90;;;;;;10394596;28;20605;-71
2022/10/12 20:28:55;;;;;;;16.47;13.53;;;11.70;99.90;;;;;;10395027;28;20213;-70
2022/10/12 20:33:57;;;;;;;15.47;13.27;;;11.80;99.90;;;;;;10398067;28;20228;-70
2022/10/12 20:38:58;;;;;;;16.70;13.33;;;12.00;99.90;;;;;;10398186;28;20307;-71
2022/10/12 20:44:00;;;;;;;15.73;12.80;;;12.00;99.90;;;;;;10393948;28;20229;-70
2022/10/12 20:49:02;;;;;;;14.83;13.20;;;12.00;99.90;;;;;;10395659;28;20237;-70
2022/10/12 20:54:04;;;;;;;19.50;14.73;;;11.90;99.90;;;;;;10391975;28;20221;-69
2022/10/12 20:59:05;;;;;;;17.53;14.37;;;11.90;99.90;;;;;;10401444;28;20243;-71
2022/10/12 21:04:05;;;;;;;15.67;13.90;;;11.80;99.90;;;;;;10393583;28;20247;-72
2022/10/12 21:09:06;;;;;;;18.07;14.03;;;11.70;99.90;;;;;;10382543;28;20225;-73
2022/10/12 21:14:10;;;;;;;19.20;13.57;;;11.60;99.90;;;;;;10396920;28;20220;-71
2022/10/12 21:19:14;;;;;;;21.02;18.77;;;11.60;99.90;;;;;;10383688;28;20475;-71
2022/10/12 21:24:14;;;;;;;18.67;15.57;;;11.60;99.90;;;;;;10396080;28;20217;-71
2022/10/12 21:29:15;;;;;;;20.53;13.67;;;11.60;99.90;;;;;;10399300;28;20682;-72
2022/10/12 21:34:16;;;;;;;20.53;13.80;;;11.50;99.90;;;;;;10400374;28;20324;-70
2022/10/12 21:39:17;;;;;;;20.17;13.30;;;11.40;99.90;;;;;;10398224;28;20270;-70
2022/10/12 21:44:17;;;;;;;22.40;14.33;;;11.30;99.90;;;;;;10393334;28;20224;-72
2022/10/12 21:49:18;;;;;;;19.50;14.93;;;11.20;99.90;;;;;;10389184;28;20827;-70
2022/10/12 21:54:18;;;;;;;15.93;12.80;;;11.30;99.90;;;;;;10391193;28;20217;-70
2022/10/12 21:59:21;;;;;;;18.07;13.90;;;11.40;99.90;;;;;;10389126;28;20228;-70
2022/10/12 22:04:22;;;;;;;18.10;13.87;;;11.40;99.90;;;;;;10386301;28;20273;-70
2022/10/12 22:09:22;;;;;;;20.43;13.20;;;11.30;99.90;;;;;;10399287;28;20271;-71
2022/10/12 22:14:26;;;;;;;19.03;13.73;;;11.30;99.90;;;;;;10401496;28;20227;-71
2022/10/12 22:19:27;;;;;;;17.93;15.33;;;11.20;99.90;;;;;;10404349;28;20216;-72
2022/10/12 22:24:28;;;;;;;17.80;15.40;;;11.10;99.90;;;;;;10401666;28;20232;-71
2022/10/12 22:29:29;;;;;;;18.53;13.77;;;11.00;99.90;;;;;;10389172;28;20852;-72
2022/10/12 22:34:30;;;;;;;21.47;16.37;;;11.00;99.90;;;;;;10402820;28;20216;-73
2022/10/12 22:39:30;;;;;;;19.47;14.87;;;10.90;99.90;;;;;;10399301;28;20217;-73
2022/10/12 22:44:31;;;;;;;23.50;16.60;;;10.90;99.90;;;;;;10401596;28;20319;-72
2022/10/12 22:49:31;;;;;;;18.47;15.87;;;10.80;99.90;;;;;;10394387;28;20308;-73
2022/10/12 22:54:33;;;;;;;17.17;14.23;;;10.80;99.90;;;;;;10391990;28;20225;-72
2022/10/12 22:59:34;;;;;;;23.20;14.80;;;10.70;99.90;;;;;;10398022;28;20226;-73
2022/10/12 23:04:35;;;;;;;18.00;14.33;;;10.60;99.90;;;;;;10395109;28;20250;-72
2022/10/12 23:09:36;;;;;;;17.03;13.70;;;10.60;99.90;;;;;;10403747;28;20246;-71
2022/10/12 23:14:36;;;;;;;20.40;14.57;;;10.60;99.90;;;;;;10399235;28;20274;-72
2022/10/12 23:19:37;;;;;;;17.53;13.90;;;10.50;99.90;;;;;;10402976;28;20220;-73
2022/10/12 23:24:38;;;;;;;17.90;14.13;;;10.50;99.90;;;;;;10396875;28;20231;-74
2022/10/12 23:29:39;;;;;;;19.60;14.10;;;10.40;99.90;;;;;;10404474;28;20278;-73
2022/10/12 23:34:39;;;;;;;21.43;14.73;;;10.40;99.90;;;;;;10383297;28;20639;-73
2022/10/12 23:39:40;;;;;;;15.27;13.47;;;10.30;99.90;;;;;;10392773;28;20307;-74
2022/10/12 23:44:40;;;;;;;17.33;14.03;;;10.20;99.90;;;;;;10458783;28;20322;-75
2022/10/12 23:49:41;;;;;;;17.60;14.23;;;10.10;99.90;;;;;;10412765;28;20586;-73
2022/10/12 23:54:42;;;;;;;20.20;14.63;;;10.20;99.90;;;;;;10407027;28;20229;-74
2022/10/12 23:59:43;;;;;;;20.33;14.07;;;10.20;99.90;;;;;;10403534;28;20254;-74
